sensor_id;sensor_type;location;lat;lon;timestamp;P1;durP1;ratioP1;P2;durP2;ratioP2
65658;SDS011;60181;53.258;6.932;2023-11-21T00:00:42;16.80;;;3.30;;
65658;SDS011;60181;53.258;6.932;2023-11-21T00:05:02;13.80;;;3.10;;
65658;SDS011;60181;53.258;6.932;2023-11-21T00:09:22;13.80;;;3.10;;
65658;SDS011;60181;53.258;6.932;2023-11-21T00:13:42;14.90;;;3.00;;
65658;SDS011;60181;53.258;6.932;2023-11-21T00:18:02;14.90;;;3.00;;
65658;SDS011;60181;53.258;6.932;2023-11-21T00:22:22;14.90;;;3.00;;
65658;SDS011;60181;53.258;6.932;2023-11-21T00:26:42;14.40;;;3.30;;
65658;SDS011;60181;53.258;6.932;2023-11-21T00:31:02;14.40;;;3.30;;
65658;SDS011;60181;53.258;6.932;2023-11-21T00:35:22;17.30;;;3.90;;
65658;SDS011;60181;53.258;6.932;2023-11-21T00:39:42;17.30;;;3.90;;
65658;SDS011;60181;53.258;6.932;2023-11-21T00:44:02;18.00;;;3.30;;
65658;SDS011;60181;53.258;6.932;2023-11-21T00:48:22;18.00;;;3.30;;
65658;SDS011;60181;53.258;6.932;2023-11-21T00:52:42;18.00;;;3.30;;
65658;SDS011;60181;53.258;6.932;2023-11-21T00:57:02;14.00;;;3.30;;
65658;SDS011;60181;53.258;6.932;2023-11-21T01:01:22;14.00;;;3.30;;
65658;SDS011;60181;53.258;6.932;2023-11-21T01:05:42;16.60;;;3.50;;
65658;SDS011;60181;53.258;6.932;2023-11-21T01:10:03;16.60;;;3.50;;
65658;SDS011;60181;53.258;6.932;2023-11-21T01:14:22;14.40;;;3.30;;
65658;SDS011;60181;53.258;6.932;2023-11-21T01:18:42;14.40;;;3.30;;
65658;SDS011;60181;53.258;6.932;2023-11-21T01:23:02;14.40;;;3.30;;
65658;SDS011;60181;53.258;6.932;2023-11-21T01:27:22;18.90;;;4.00;;
65658;SDS011;60181;53.258;6.932;2023-11-21T01:31:42;18.90;;;4.00;;
65658;SDS011;60181;53.258;6.932;2023-11-21T01:36:02;16.40;;;4.10;;
65658;SDS011;60181;53.258;6.932;2023-11-21T01:40:22;16.40;;;4.10;;
65658;SDS011;60181;53.258;6.932;2023-11-21T01:44:42;14.00;;;3.90;;
65658;SDS011;60181;53.258;6.932;2023-11-21T01:49:02;14.00;;;3.90;;
65658;SDS011;60181;53.258;6.932;2023-11-21T01:53:23;17.10;;;4.00;;
65658;SDS011;60181;53.258;6.932;2023-11-21T01:57:42;17.10;;;4.00;;
65658;SDS011;60181;53.258;6.932;2023-11-21T02:02:05;17.10;;;4.00;;
65658;SDS011;60181;53.258;6.932;2023-11-21T02:06:22;18.50;;;4.00;;
65658;SDS011;60181;53.258;6.932;2023-11-21T02:10:42;18.50;;;4.00;;
65658;SDS011;60181;53.258;6.932;2023-11-21T02:15:02;16.90;;;4.20;;
65658;SDS011;60181;53.258;6.932;2023-11-21T02:19:22;16.90;;;4.20;;
65658;SDS011;60181;53.258;6.932;2023-11-21T02:23:42;20.70;;;4.20;;
65658;SDS011;60181;53.258;6.932;2023-11-21T02:28:02;20.70;;;4.20;;
65658;SDS011;60181;53.258;6.932;2023-11-21T02:32:22;20.70;;;4.20;;
65658;SDS011;60181;53.258;6.932;2023-11-21T02:36:42;12.40;;;3.80;;
65658;SDS011;60181;53.258;6.932;2023-11-21T02:41:02;12.40;;;3.80;;
65658;SDS011;60181;53.258;6.932;2023-11-21T02:45:22;20.30;;;3.90;;
65658;SDS011;60181;53.258;6.932;2023-11-21T02:49:42;20.30;;;3.90;;
65658;SDS011;60181;53.258;6.932;2023-11-21T02:54:02;20.30;;;4.70;;
65658;SDS011;60181;53.258;6.932;2023-11-21T02:58:22;20.30;;;4.70;;
65658;SDS011;60181;53.258;6.932;2023-11-21T03:02:42;20.30;;;4.70;;
65658;SDS011;60181;53.258;6.932;2023-11-21T03:07:02;21.00;;;4.10;;
65658;SDS011;60181;53.258;6.932;2023-11-21T03:11:22;21.00;;;4.10;;
65658;SDS011;60181;53.258;6.932;2023-11-21T03:15:42;17.00;;;4.20;;
65658;SDS011;60181;53.258;6.932;2023-11-21T03:20:02;17.00;;;4.20;;
65658;SDS011;60181;53.258;6.932;2023-11-21T03:24:22;13.60;;;3.90;;
65658;SDS011;60181;53.258;6.932;2023-11-21T03:28:42;13.60;;;3.90;;
65658;SDS011;60181;53.258;6.932;2023-11-21T03:33:02;13.60;;;3.90;;
65658;SDS011;60181;53.258;6.932;2023-11-21T03:37:22;18.70;;;4.30;;
65658;SDS011;60181;53.258;6.932;2023-11-21T03:41:42;18.70;;;4.30;;
65658;SDS011;60181;53.258;6.932;2023-11-21T03:46:02;20.00;;;4.70;;
65658;SDS011;60181;53.258;6.932;2023-11-21T03:50:22;20.00;;;4.70;;
65658;SDS011;60181;53.258;6.932;2023-11-21T03:54:42;21.00;;;4.90;;
65658;SDS011;60181;53.258;6.932;2023-11-21T03:59:02;21.00;;;4.90;;
65658;SDS011;60181;53.258;6.932;2023-11-21T04:03:22;24.40;;;5.30;;
65658;SDS011;60181;53.258;6.932;2023-11-21T04:07:42;24.40;;;5.30;;
65658;SDS011;60181;53.258;6.932;2023-11-21T04:12:02;24.40;;;5.30;;
65658;SDS011;60181;53.258;6.932;2023-11-21T04:16:22;30.10;;;5.40;;
65658;SDS011;60181;53.258;6.932;2023-11-21T04:20:42;30.10;;;5.40;;
65658;SDS011;60181;53.258;6.932;2023-11-21T04:25:02;22.70;;;6.30;;
65658;SDS011;60181;53.258;6.932;2023-11-21T04:29:22;22.70;;;6.30;;
65658;SDS011;60181;53.258;6.932;2023-11-21T04:33:42;26.80;;;6.50;;
65658;SDS011;60181;53.258;6.932;2023-11-21T04:38:02;26.80;;;6.50;;
65658;SDS011;60181;53.258;6.932;2023-11-21T04:42:22;26.80;;;6.50;;
65658;SDS011;60181;53.258;6.932;2023-11-21T04:46:42;36.20;;;7.40;;
65658;SDS011;60181;53.258;6.932;2023-11-21T04:51:02;36.20;;;7.40;;
65658;SDS011;60181;53.258;6.932;2023-11-21T04:55:22;30.90;;;7.10;;
65658;SDS011;60181;53.258;6.932;2023-11-21T04:59:42;30.90;;;7.10;;
65658;SDS011;60181;53.258;6.932;2023-11-21T05:04:02;29.50;;;7.50;;
65658;SDS011;60181;53.258;6.932;2023-11-21T05:08:22;29.50;;;7.50;;
65658;SDS011;60181;53.258;6.932;2023-11-21T05:12:42;29.50;;;7.50;;
65658;SDS011;60181;53.258;6.932;2023-11-21T05:17:02;23.20;;;7.50;;
65658;SDS011;60181;53.258;6.932;2023-11-21T05:21:22;23.20;;;7.50;;
65658;SDS011;60181;53.258;6.932;2023-11-21T05:25:42;24.30;;;8.00;;
65658;SDS011;60181;53.258;6.932;2023-11-21T05:30:02;24.30;;;8.00;;
65658;SDS011;60181;53.258;6.932;2023-11-21T05:34:22;26.00;;;7.70;;
65658;SDS011;60181;53.258;6.932;2023-11-21T05:38:41;26.00;;;7.70;;
65658;SDS011;60181;53.258;6.932;2023-11-21T05:43:02;26.00;;;7.70;;
65658;SDS011;60181;53.258;6.932;2023-11-21T05:47:21;19.80;;;7.50;;
65658;SDS011;60181;53.258;6.932;2023-11-21T05:51:42;19.80;;;7.50;;
65658;SDS011;60181;53.258;6.932;2023-11-21T05:56:02;23.30;;;8.00;;
65658;SDS011;60181;53.258;6.932;2023-11-21T06:00:22;23.30;;;8.00;;
65658;SDS011;60181;53.258;6.932;2023-11-21T06:04:41;19.70;;;8.10;;
65658;SDS011;60181;53.258;6.932;2023-11-21T06:09:02;19.70;;;8.10;;
65658;SDS011;60181;53.258;6.932;2023-11-21T06:13:21;25.80;;;9.10;;
65658;SDS011;60181;53.258;6.932;2023-11-21T06:17:42;25.80;;;9.10;;
65658;SDS011;60181;53.258;6.932;2023-11-21T06:22:01;25.80;;;9.10;;
65658;SDS011;60181;53.258;6.932;2023-11-21T06:26:21;22.00;;;8.60;;
65658;SDS011;60181;53.258;6.932;2023-11-21T06:30:41;22.00;;;8.60;;
65658;SDS011;60181;53.258;6.932;2023-11-21T06:35:02;20.60;;;8.10;;
65658;SDS011;60181;53.258;6.932;2023-11-21T06:39:21;20.60;;;8.10;;
65658;SDS011;60181;53.258;6.932;2023-11-21T06:43:41;21.60;;;9.30;;
65658;SDS011;60181;53.258;6.932;2023-11-21T06:48:02;21.60;;;9.30;;
65658;SDS011;60181;53.258;6.932;2023-11-21T06:52:21;21.60;;;9.30;;
65658;SDS011;60181;53.258;6.932;2023-11-21T06:56:41;26.70;;;10.40;;
65658;SDS011;60181;53.258;6.932;2023-11-21T07:01:01;26.70;;;10.40;;
65658;SDS011;60181;53.258;6.932;2023-11-21T07:05:21;22.80;;;10.00;;
65658;SDS011;60181;53.258;6.932;2023-11-21T07:09:41;22.80;;;10.00;;
65658;SDS011;60181;53.258;6.932;2023-11-21T07:14:01;26.30;;;10.60;;
65658;SDS011;60181;53.258;6.932;2023-11-21T07:18:21;26.30;;;10.60;;
65658;SDS011;60181;53.258;6.932;2023-11-21T07:22:41;26.30;;;10.60;;
65658;SDS011;60181;53.258;6.932;2023-11-21T07:27:01;26.40;;;11.40;;
65658;SDS011;60181;53.258;6.932;2023-11-21T07:31:22;26.40;;;11.40;;
65658;SDS011;60181;53.258;6.932;2023-11-21T07:35:41;25.70;;;11.50;;
65658;SDS011;60181;53.258;6.932;2023-11-21T07:40:01;25.70;;;11.50;;
65658;SDS011;60181;53.258;6.932;2023-11-21T07:44:21;27.70;;;12.10;;
65658;SDS011;60181;53.258;6.932;2023-11-21T07:48:41;27.70;;;12.10;;
65658;SDS011;60181;53.258;6.932;2023-11-21T07:53:01;27.70;;;12.10;;
65658;SDS011;60181;53.258;6.932;2023-11-21T07:57:21;22.70;;;11.40;;
65658;SDS011;60181;53.258;6.932;2023-11-21T08:01:41;22.70;;;11.40;;
65658;SDS011;60181;53.258;6.932;2023-11-21T08:06:01;24.60;;;11.30;;
65658;SDS011;60181;53.258;6.932;2023-11-21T08:10:21;24.60;;;11.30;;
65658;SDS011;60181;53.258;6.932;2023-11-21T08:14:41;20.30;;;10.50;;
65658;SDS011;60181;53.258;6.932;2023-11-21T08:19:01;20.30;;;10.50;;
65658;SDS011;60181;53.258;6.932;2023-11-21T08:23:21;20.10;;;10.30;;
65658;SDS011;60181;53.258;6.932;2023-11-21T08:27:41;20.10;;;10.30;;
65658;SDS011;60181;53.258;6.932;2023-11-21T08:32:02;20.10;;;10.30;;
65658;SDS011;60181;53.258;6.932;2023-11-21T08:36:22;21.50;;;8.60;;
65658;SDS011;60181;53.258;6.932;2023-11-21T08:40:41;21.50;;;8.60;;
65658;SDS011;60181;53.258;6.932;2023-11-21T08:45:01;13.10;;;6.30;;
65658;SDS011;60181;53.258;6.932;2023-11-21T08:49:21;13.10;;;6.30;;
65658;SDS011;60181;53.258;6.932;2023-11-21T08:53:41;13.00;;;6.50;;
65658;SDS011;60181;53.258;6.932;2023-11-21T08:58:01;13.00;;;6.50;;
65658;SDS011;60181;53.258;6.932;2023-11-21T09:02:21;13.00;;;6.50;;
65658;SDS011;60181;53.258;6.932;2023-11-21T09:06:41;14.30;;;5.90;;
65658;SDS011;60181;53.258;6.932;2023-11-21T09:11:01;14.30;;;5.90;;
65658;SDS011;60181;53.258;6.932;2023-11-21T09:15:21;12.60;;;5.20;;
65658;SDS011;60181;53.258;6.932;2023-11-21T09:19:41;12.60;;;5.20;;
65658;SDS011;60181;53.258;6.932;2023-11-21T09:24:01;10.70;;;5.00;;
65658;SDS011;60181;53.258;6.932;2023-11-21T09:28:21;10.70;;;5.00;;
65658;SDS011;60181;53.258;6.932;2023-11-21T09:32:41;10.70;;;5.00;;
65658;SDS011;60181;53.258;6.932;2023-11-21T09:37:01;10.20;;;4.70;;
65658;SDS011;60181;53.258;6.932;2023-11-21T09:41:23;10.20;;;4.70;;
65658;SDS011;60181;53.258;6.932;2023-11-21T09:45:42;10.60;;;4.50;;
65658;SDS011;60181;53.258;6.932;2023-11-21T09:50:01;10.60;;;4.50;;
65658;SDS011;60181;53.258;6.932;2023-11-21T09:54:21;8.50;;;4.00;;
65658;SDS011;60181;53.258;6.932;2023-11-21T09:58:41;8.50;;;4.00;;
65658;SDS011;60181;53.258;6.932;2023-11-21T10:03:01;8.50;;;4.00;;
65658;SDS011;60181;53.258;6.932;2023-11-21T10:07:21;6.80;;;3.40;;
65658;SDS011;60181;53.258;6.932;2023-11-21T10:11:41;6.80;;;3.40;;
65658;SDS011;60181;53.258;6.932;2023-11-21T10:16:01;6.10;;;3.40;;
65658;SDS011;60181;53.258;6.932;2023-11-21T10:20:22;6.10;;;3.40;;
65658;SDS011;60181;53.258;6.932;2023-11-21T10:24:41;5.90;;;3.10;;
65658;SDS011;60181;53.258;6.932;2023-11-21T10:29:01;5.90;;;3.10;;
65658;SDS011;60181;53.258;6.932;2023-11-21T10:33:27;6.20;;;3.30;;
65658;SDS011;60181;53.258;6.932;2023-11-21T10:37:41;6.20;;;3.30;;
65658;SDS011;60181;53.258;6.932;2023-11-21T10:42:01;6.20;;;3.30;;
65658;SDS011;60181;53.258;6.932;2023-11-21T10:46:21;6.10;;;3.20;;
65658;SDS011;60181;53.258;6.932;2023-11-21T10:50:41;6.10;;;3.20;;
65658;SDS011;60181;53.258;6.932;2023-11-21T10:55:01;4.80;;;3.00;;
65658;SDS011;60181;53.258;6.932;2023-11-21T10:59:22;4.80;;;3.00;;
65658;SDS011;60181;53.258;6.932;2023-11-21T11:03:41;4.60;;;3.00;;
65658;SDS011;60181;53.258;6.932;2023-11-21T11:08:05;4.60;;;3.00;;
65658;SDS011;60181;53.258;6.932;2023-11-21T11:12:21;4.60;;;3.00;;
65658;SDS011;60181;53.258;6.932;2023-11-21T11:16:41;5.20;;;2.80;;
65658;SDS011;60181;53.258;6.932;2023-11-21T11:21:07;5.20;;;2.80;;
65658;SDS011;60181;53.258;6.932;2023-11-21T11:25:34;6.00;;;2.80;;
65658;SDS011;60181;53.258;6.932;2023-11-21T11:38:21;4.00;;;2.70;;
65658;SDS011;60181;53.258;6.932;2023-11-21T11:43:00;4.00;;;2.70;;
65658;SDS011;60181;53.258;6.932;2023-11-21T11:47:01;6.10;;;2.70;;
65658;SDS011;60181;53.258;6.932;2023-11-21T11:51:21;6.10;;;2.70;;
65658;SDS011;60181;53.258;6.932;2023-11-21T11:55:41;4.70;;;2.50;;
65658;SDS011;60181;53.258;6.932;2023-11-21T12:04:22;5.10;;;2.70;;
65658;SDS011;60181;53.258;6.932;2023-11-21T12:08:41;5.10;;;2.70;;
65658;SDS011;60181;53.258;6.932;2023-11-21T12:13:02;5.10;;;2.70;;
65658;SDS011;60181;53.258;6.932;2023-11-21T12:17:21;5.10;;;2.50;;
65658;SDS011;60181;53.258;6.932;2023-11-21T12:21:41;5.10;;;2.50;;
65658;SDS011;60181;53.258;6.932;2023-11-21T12:26:01;4.80;;;2.50;;
65658;SDS011;60181;53.258;6.932;2023-11-21T12:30:22;4.80;;;2.50;;
65658;SDS011;60181;53.258;6.932;2023-11-21T12:34:41;4.80;;;2.50;;
65658;SDS011;60181;53.258;6.932;2023-11-21T12:39:01;4.80;;;2.50;;
65658;SDS011;60181;53.258;6.932;2023-11-21T12:43:21;3.60;;;2.40;;
65658;SDS011;60181;53.258;6.932;2023-11-21T12:47:42;3.60;;;2.40;;
65658;SDS011;60181;53.258;6.932;2023-11-21T12:52:01;3.60;;;2.40;;
65658;SDS011;60181;53.258;6.932;2023-11-21T12:56:21;5.00;;;2.60;;
65658;SDS011;60181;53.258;6.932;2023-11-21T13:00:48;5.00;;;2.60;;
65658;SDS011;60181;53.258;6.932;2023-11-21T13:05:01;4.60;;;2.60;;
65658;SDS011;60181;53.258;6.932;2023-11-21T13:09:21;4.60;;;2.60;;
65658;SDS011;60181;53.258;6.932;2023-11-21T13:13:41;3.80;;;2.40;;
65658;SDS011;60181;53.258;6.932;2023-11-21T13:18:01;3.80;;;2.40;;
65658;SDS011;60181;53.258;6.932;2023-11-21T13:22:21;3.80;;;2.40;;
65658;SDS011;60181;53.258;6.932;2023-11-21T13:26:41;5.30;;;2.40;;
65658;SDS011;60181;53.258;6.932;2023-11-21T13:31:01;5.30;;;2.40;;
65658;SDS011;60181;53.258;6.932;2023-11-21T13:35:21;4.80;;;2.50;;
65658;SDS011;60181;53.258;6.932;2023-11-21T13:39:41;4.80;;;2.50;;
65658;SDS011;60181;53.258;6.932;2023-11-21T13:44:01;3.30;;;2.10;;
65658;SDS011;60181;53.258;6.932;2023-11-21T13:48:21;3.30;;;2.10;;
65658;SDS011;60181;53.258;6.932;2023-11-21T13:52:41;3.30;;;2.10;;
65658;SDS011;60181;53.258;6.932;2023-11-21T13:57:01;4.60;;;2.40;;
65658;SDS011;60181;53.258;6.932;2023-11-21T14:01:22;4.60;;;2.40;;
65658;SDS011;60181;53.258;6.932;2023-11-21T14:05:41;4.80;;;2.00;;
65658;SDS011;60181;53.258;6.932;2023-11-21T14:10:01;4.80;;;2.00;;
65658;SDS011;60181;53.258;6.932;2023-11-21T14:14:21;4.90;;;2.40;;
65658;SDS011;60181;53.258;6.932;2023-11-21T14:18:41;4.90;;;2.40;;
65658;SDS011;60181;53.258;6.932;2023-11-21T14:23:01;4.90;;;2.40;;
65658;SDS011;60181;53.258;6.932;2023-11-21T14:27:21;3.30;;;2.30;;
65658;SDS011;60181;53.258;6.932;2023-11-21T14:31:41;3.30;;;2.30;;
65658;SDS011;60181;53.258;6.932;2023-11-21T14:36:01;4.70;;;2.50;;
65658;SDS011;60181;53.258;6.932;2023-11-21T14:40:21;4.70;;;2.50;;
65658;SDS011;60181;53.258;6.932;2023-11-21T14:44:41;3.40;;;2.10;;
65658;SDS011;60181;53.258;6.932;2023-11-21T14:49:01;3.40;;;2.10;;
65658;SDS011;60181;53.258;6.932;2023-11-21T14:53:21;3.10;;;2.20;;
65658;SDS011;60181;53.258;6.932;2023-11-21T14:57:41;3.10;;;2.20;;
65658;SDS011;60181;53.258;6.932;2023-11-21T15:02:01;3.10;;;2.20;;
65658;SDS011;60181;53.258;6.932;2023-11-21T15:06:21;3.20;;;2.30;;
65658;SDS011;60181;53.258;6.932;2023-11-21T15:10:41;3.20;;;2.30;;
65658;SDS011;60181;53.258;6.932;2023-11-21T15:15:01;4.30;;;2.10;;
65658;SDS011;60181;53.258;6.932;2023-11-21T15:19:21;4.30;;;2.10;;
65658;SDS011;60181;53.258;6.932;2023-11-21T15:23:41;3.80;;;2.20;;
65658;SDS011;60181;53.258;6.932;2023-11-21T15:28:01;3.80;;;2.20;;
65658;SDS011;60181;53.258;6.932;2023-11-21T15:32:21;3.80;;;2.20;;
65658;SDS011;60181;53.258;6.932;2023-11-21T15:36:41;4.50;;;2.30;;
65658;SDS011;60181;53.258;6.932;2023-11-21T15:41:01;4.50;;;2.30;;
65658;SDS011;60181;53.258;6.932;2023-11-21T15:45:21;4.80;;;2.30;;
65658;SDS011;60181;53.258;6.932;2023-11-21T15:49:41;4.80;;;2.30;;
65658;SDS011;60181;53.258;6.932;2023-11-21T15:54:01;4.10;;;2.10;;
65658;SDS011;60181;53.258;6.932;2023-11-21T15:58:21;4.10;;;2.10;;
65658;SDS011;60181;53.258;6.932;2023-11-21T16:02:41;4.10;;;2.10;;
65658;SDS011;60181;53.258;6.932;2023-11-21T16:07:01;5.80;;;2.00;;
65658;SDS011;60181;53.258;6.932;2023-11-21T16:11:21;5.80;;;2.00;;
65658;SDS011;60181;53.258;6.932;2023-11-21T16:15:41;4.20;;;2.30;;
65658;SDS011;60181;53.258;6.932;2023-11-21T16:20:02;4.20;;;2.30;;
65658;SDS011;60181;53.258;6.932;2023-11-21T16:24:21;3.30;;;2.10;;
65658;SDS011;60181;53.258;6.932;2023-11-21T16:28:41;3.30;;;2.10;;
65658;SDS011;60181;53.258;6.932;2023-11-21T16:33:01;3.30;;;2.10;;
65658;SDS011;60181;53.258;6.932;2023-11-21T16:37:21;3.40;;;2.10;;
65658;SDS011;60181;53.258;6.932;2023-11-21T16:41:41;3.40;;;2.10;;
65658;SDS011;60181;53.258;6.932;2023-11-21T16:46:01;4.20;;;2.30;;
65658;SDS011;60181;53.258;6.932;2023-11-21T16:50:21;4.20;;;2.30;;
65658;SDS011;60181;53.258;6.932;2023-11-21T16:54:41;3.50;;;2.10;;
65658;SDS011;60181;53.258;6.932;2023-11-21T16:59:01;3.50;;;2.10;;
65658;SDS011;60181;53.258;6.932;2023-11-21T17:03:21;3.40;;;2.20;;
65658;SDS011;60181;53.258;6.932;2023-11-21T17:07:41;3.40;;;2.20;;
65658;SDS011;60181;53.258;6.932;2023-11-21T17:12:01;3.40;;;2.20;;
65658;SDS011;60181;53.258;6.932;2023-11-21T17:16:21;4.10;;;2.30;;
65658;SDS011;60181;53.258;6.932;2023-11-21T17:20:41;4.10;;;2.30;;
65658;SDS011;60181;53.258;6.932;2023-11-21T17:25:01;4.00;;;2.10;;
65658;SDS011;60181;53.258;6.932;2023-11-21T17:29:21;4.00;;;2.10;;
65658;SDS011;60181;53.258;6.932;2023-11-21T17:33:40;3.30;;;2.00;;
65658;SDS011;60181;53.258;6.932;2023-11-21T17:38:00;3.30;;;2.00;;
65658;SDS011;60181;53.258;6.932;2023-11-21T17:42:20;3.30;;;2.00;;
65658;SDS011;60181;53.258;6.932;2023-11-21T17:46:40;3.60;;;2.30;;
65658;SDS011;60181;53.258;6.932;2023-11-21T17:51:00;3.60;;;2.30;;
65658;SDS011;60181;53.258;6.932;2023-11-21T17:55:20;3.50;;;2.30;;
65658;SDS011;60181;53.258;6.932;2023-11-21T17:59:41;3.50;;;2.30;;
65658;SDS011;60181;53.258;6.932;2023-11-21T18:04:00;4.80;;;2.50;;
65658;SDS011;60181;53.258;6.932;2023-11-21T18:08:20;4.80;;;2.50;;
65658;SDS011;60181;53.258;6.932;2023-11-21T18:12:40;4.80;;;2.50;;
65658;SDS011;60181;53.258;6.932;2023-11-21T18:17:00;4.90;;;2.50;;
65658;SDS011;60181;53.258;6.932;2023-11-21T18:21:20;4.90;;;2.50;;
65658;SDS011;60181;53.258;6.932;2023-11-21T18:25:40;4.00;;;2.50;;
65658;SDS011;60181;53.258;6.932;2023-11-21T18:30:00;4.00;;;2.50;;
65658;SDS011;60181;53.258;6.932;2023-11-21T18:34:20;4.40;;;2.50;;
65658;SDS011;60181;53.258;6.932;2023-11-21T18:38:40;4.40;;;2.50;;
65658;SDS011;60181;53.258;6.932;2023-11-21T18:43:00;4.40;;;2.50;;
65658;SDS011;60181;53.258;6.932;2023-11-21T18:47:20;4.50;;;2.20;;
65658;SDS011;60181;53.258;6.932;2023-11-21T18:51:44;4.50;;;2.20;;
65658;SDS011;60181;53.258;6.932;2023-11-21T18:56:01;3.20;;;2.20;;
65658;SDS011;60181;53.258;6.932;2023-11-21T19:00:20;3.20;;;2.20;;
65658;SDS011;60181;53.258;6.932;2023-11-21T19:04:40;4.20;;;2.50;;
65658;SDS011;60181;53.258;6.932;2023-11-21T19:09:00;4.20;;;2.50;;
65658;SDS011;60181;53.258;6.932;2023-11-21T19:13:20;3.70;;;2.30;;
65658;SDS011;60181;53.258;6.932;2023-11-21T19:17:40;3.70;;;2.30;;
65658;SDS011;60181;53.258;6.932;2023-11-21T19:22:00;3.70;;;2.30;;
65658;SDS011;60181;53.258;6.932;2023-11-21T19:26:20;3.70;;;2.20;;
65658;SDS011;60181;53.258;6.932;2023-11-21T19:30:40;3.70;;;2.20;;
65658;SDS011;60181;53.258;6.932;2023-11-21T19:35:01;3.70;;;2.20;;
65658;SDS011;60181;53.258;6.932;2023-11-21T19:39:20;3.70;;;2.20;;
65658;SDS011;60181;53.258;6.932;2023-11-21T19:43:41;3.90;;;2.10;;
65658;SDS011;60181;53.258;6.932;2023-11-21T19:48:00;3.90;;;2.10;;
65658;SDS011;60181;53.258;6.932;2023-11-21T19:52:20;3.90;;;2.10;;
65658;SDS011;60181;53.258;6.932;2023-11-21T19:56:40;4.10;;;2.40;;
65658;SDS011;60181;53.258;6.932;2023-11-21T20:01:00;4.10;;;2.40;;
65658;SDS011;60181;53.258;6.932;2023-11-21T20:05:20;3.90;;;2.30;;
65658;SDS011;60181;53.258;6.932;2023-11-21T20:09:40;3.90;;;2.30;;
65658;SDS011;60181;53.258;6.932;2023-11-21T20:14:00;3.60;;;2.20;;
65658;SDS011;60181;53.258;6.932;2023-11-21T20:18:20;3.60;;;2.20;;
65658;SDS011;60181;53.258;6.932;2023-11-21T20:22:40;3.60;;;2.20;;
65658;SDS011;60181;53.258;6.932;2023-11-21T20:27:01;3.30;;;2.20;;
65658;SDS011;60181;53.258;6.932;2023-11-21T20:31:20;3.30;;;2.20;;
65658;SDS011;60181;53.258;6.932;2023-11-21T20:35:40;3.10;;;2.20;;
65658;SDS011;60181;53.258;6.932;2023-11-21T20:40:00;3.10;;;2.20;;
65658;SDS011;60181;53.258;6.932;2023-11-21T20:44:20;4.30;;;2.20;;
65658;SDS011;60181;53.258;6.932;2023-11-21T20:48:40;4.30;;;2.20;;
65658;SDS011;60181;53.258;6.932;2023-11-21T20:53:00;4.30;;;2.20;;
65658;SDS011;60181;53.258;6.932;2023-11-21T20:57:21;3.70;;;2.10;;
65658;SDS011;60181;53.258;6.932;2023-11-21T21:01:40;3.70;;;2.10;;
65658;SDS011;60181;53.258;6.932;2023-11-21T21:06:00;4.30;;;2.30;;
65658;SDS011;60181;53.258;6.932;2023-11-21T21:10:23;4.30;;;2.30;;
65658;SDS011;60181;53.258;6.932;2023-11-21T21:14:40;4.30;;;2.30;;
65658;SDS011;60181;53.258;6.932;2023-11-21T21:19:00;4.30;;;2.30;;
65658;SDS011;60181;53.258;6.932;2023-11-21T21:23:20;4.70;;;2.50;;
65658;SDS011;60181;53.258;6.932;2023-11-21T21:27:40;4.70;;;2.50;;
65658;SDS011;60181;53.258;6.932;2023-11-21T21:32:00;4.70;;;2.50;;
65658;SDS011;60181;53.258;6.932;2023-11-21T21:36:20;3.90;;;2.30;;
65658;SDS011;60181;53.258;6.932;2023-11-21T21:40:40;3.90;;;2.30;;
65658;SDS011;60181;53.258;6.932;2023-11-21T21:45:00;10.50;;;3.00;;
65658;SDS011;60181;53.258;6.932;2023-11-21T21:49:20;10.50;;;3.00;;
65658;SDS011;60181;53.258;6.932;2023-11-21T21:53:40;6.80;;;3.80;;
65658;SDS011;60181;53.258;6.932;2023-11-21T21:58:00;6.80;;;3.80;;
65658;SDS011;60181;53.258;6.932;2023-11-21T22:02:20;6.80;;;3.80;;
65658;SDS011;60181;53.258;6.932;2023-11-21T22:06:40;10.70;;;4.30;;
65658;SDS011;60181;53.258;6.932;2023-11-21T22:11:00;10.70;;;4.30;;
65658;SDS011;60181;53.258;6.932;2023-11-21T22:15:20;12.10;;;4.70;;
65658;SDS011;60181;53.258;6.932;2023-11-21T22:19:40;12.10;;;4.70;;
65658;SDS011;60181;53.258;6.932;2023-11-21T22:24:00;11.20;;;4.80;;
65658;SDS011;60181;53.258;6.932;2023-11-21T22:28:20;11.20;;;4.80;;
65658;SDS011;60181;53.258;6.932;2023-11-21T22:32:40;11.20;;;4.80;;
65658;SDS011;60181;53.258;6.932;2023-11-21T22:37:00;9.70;;;5.10;;
65658;SDS011;60181;53.258;6.932;2023-11-21T22:41:23;9.70;;;5.10;;
65658;SDS011;60181;53.258;6.932;2023-11-21T22:45:40;10.20;;;5.10;;
65658;SDS011;60181;53.258;6.932;2023-11-21T22:50:00;10.20;;;5.10;;
65658;SDS011;60181;53.258;6.932;2023-11-21T22:54:20;15.10;;;5.40;;
65658;SDS011;60181;53.258;6.932;2023-11-21T22:58:40;15.10;;;5.40;;
65658;SDS011;60181;53.258;6.932;2023-11-21T23:03:00;15.10;;;5.40;;
65658;SDS011;60181;53.258;6.932;2023-11-21T23:07:20;12.50;;;5.20;;
65658;SDS011;60181;53.258;6.932;2023-11-21T23:11:40;12.50;;;5.20;;
65658;SDS011;60181;53.258;6.932;2023-11-21T23:16:00;11.00;;;5.00;;
65658;SDS011;60181;53.258;6.932;2023-11-21T23:20:20;11.00;;;5.00;;
65658;SDS011;60181;53.258;6.932;2023-11-21T23:24:40;10.20;;;4.60;;
65658;SDS011;60181;53.258;6.932;2023-11-21T23:29:00;10.20;;;4.60;;
65658;SDS011;60181;53.258;6.932;2023-11-21T23:33:20;10.30;;;4.90;;
65658;SDS011;60181;53.258;6.932;2023-11-21T23:37:40;10.30;;;4.90;;
65658;SDS011;60181;53.258;6.932;2023-11-21T23:42:00;10.30;;;4.90;;
65658;SDS011;60181;53.258;6.932;2023-11-21T23:46:20;10.40;;;4.90;;
65658;SDS011;60181;53.258;6.932;2023-11-21T23:50:40;10.40;;;4.90;;
65658;SDS011;60181;53.258;6.932;2023-11-21T23:55:00;8.40;;;4.50;;
65658;SDS011;60181;53.258;6.932;2023-11-21T23:59:20;8.40;;;4.50;;
